SBGO 231700Z 02007KT 9999 SCT040 30/08 Q1017
 CSS3 Dropdown Menu
 
Valores da Hora de Voo
julho
D S T Q Q S S
1
2
3
4
5
6
7
8
9
10
11
12
13
14
15
16
17
18
19
20
21
22
23
24
25
26
27
28
29
30
31
     
Face Book
Telefone: (62) 3264-8696 / 3264-7001
Setor Santa Genoveva
Av. Sucuri, s/nº
Aeroporto Santa Genoveva
CEP: 74000-000
Goiânia-Goiás

Content on this page requires a newer version of Adobe Flash Player.

Get Adobe Flash player

 
Copyrigth